sensor_id;sensor_type;location;lat;lon;timestamp;temperature;humidity
3408;DHT22;1717;50.240;8.406;2023-07-31T00:00:04;19.30;99.90
3408;DHT22;1717;50.240;8.406;2023-07-31T00:02:33;19.30;99.90
3408;DHT22;1717;50.240;8.406;2023-07-31T00:05:00;19.40;99.90
3408;DHT22;1717;50.240;8.406;2023-07-31T00:07:27;19.40;99.90
3408;DHT22;1717;50.240;8.406;2023-07-31T00:09:54;19.30;99.90
3408;DHT22;1717;50.240;8.406;2023-07-31T00:12:22;19.30;99.90
3408;DHT22;1717;50.240;8.406;2023-07-31T00:14:49;19.30;99.90
3408;DHT22;1717;50.240;8.406;2023-07-31T00:17:17;19.30;99.90
3408;DHT22;1717;50.240;8.406;2023-07-31T00:19:45;19.30;99.90
3408;DHT22;1717;50.240;8.406;2023-07-31T00:22:14;19.30;99.90
3408;DHT22;1717;50.240;8.406;2023-07-31T00:24:41;19.20;99.90
3408;DHT22;1717;50.240;8.406;2023-07-31T00:27:08;19.20;99.90
3408;DHT22;1717;50.240;8.406;2023-07-31T00:29:35;19.10;99.90
3408;DHT22;1717;50.240;8.406;2023-07-31T00:32:02;19.00;99.90
3408;DHT22;1717;50.240;8.406;2023-07-31T00:34:28;19.10;99.90
3408;DHT22;1717;50.240;8.406;2023-07-31T00:36:57;19.10;99.90
3408;DHT22;1717;50.240;8.406;2023-07-31T00:39:23;19.10;99.90
3408;DHT22;1717;50.240;8.406;2023-07-31T00:41:50;19.10;99.90
3408;DHT22;1717;50.240;8.406;2023-07-31T00:44:17;19.00;99.90
3408;DHT22;1717;50.240;8.406;2023-07-31T00:46:44;19.10;99.90
3408;DHT22;1717;50.240;8.406;2023-07-31T00:49:11;19.00;99.90
3408;DHT22;1717;50.240;8.406;2023-07-31T00:51:38;19.00;99.90
3408;DHT22;1717;50.240;8.406;2023-07-31T00:54:06;19.00;99.90
3408;DHT22;1717;50.240;8.406;2023-07-31T00:56:33;19.00;99.90
3408;DHT22;1717;50.240;8.406;2023-07-31T00:59:00;19.00;99.90
3408;DHT22;1717;50.240;8.406;2023-07-31T01:01:27;19.00;99.90
3408;DHT22;1717;50.240;8.406;2023-07-31T01:03:54;19.00;99.90
3408;DHT22;1717;50.240;8.406;2023-07-31T01:06:30;18.90;99.90
3408;DHT22;1717;50.240;8.406;2023-07-31T01:09:02;18.90;99.90
3408;DHT22;1717;50.240;8.406;2023-07-31T01:11:34;19.10;99.90
3408;DHT22;1717;50.240;8.406;2023-07-31T01:14:03;18.90;99.90
3408;DHT22;1717;50.240;8.406;2023-07-31T01:16:30;18.90;99.90
3408;DHT22;1717;50.240;8.406;2023-07-31T01:18:57;18.90;99.90
3408;DHT22;1717;50.240;8.406;2023-07-31T01:21:38;18.90;99.90
3408;DHT22;1717;50.240;8.406;2023-07-31T01:24:20;18.90;99.90
3408;DHT22;1717;50.240;8.406;2023-07-31T01:26:53;18.90;99.90
3408;DHT22;1717;50.240;8.406;2023-07-31T01:29:29;18.80;99.90
3408;DHT22;1717;50.240;8.406;2023-07-31T01:32:01;18.70;99.90
3408;DHT22;1717;50.240;8.406;2023-07-31T01:34:29;18.70;99.90
3408;DHT22;1717;50.240;8.406;2023-07-31T01:36:56;18.70;99.90
3408;DHT22;1717;50.240;8.406;2023-07-31T01:39:24;18.50;99.90
3408;DHT22;1717;50.240;8.406;2023-07-31T01:41:52;18.50;99.90
3408;DHT22;1717;50.240;8.406;2023-07-31T01:44:19;18.40;99.90
3408;DHT22;1717;50.240;8.406;2023-07-31T01:46:46;18.30;99.90
3408;DHT22;1717;50.240;8.406;2023-07-31T01:49:12;18.40;99.90
3408;DHT22;1717;50.240;8.406;2023-07-31T01:51:39;18.40;99.90
3408;DHT22;1717;50.240;8.406;2023-07-31T01:54:06;18.50;99.90
3408;DHT22;1717;50.240;8.406;2023-07-31T01:56:33;18.40;99.90
3408;DHT22;1717;50.240;8.406;2023-07-31T01:59:01;18.20;99.90
3408;DHT22;1717;50.240;8.406;2023-07-31T02:01:28;18.20;99.90
3408;DHT22;1717;50.240;8.406;2023-07-31T02:03:55;18.30;99.90
3408;DHT22;1717;50.240;8.406;2023-07-31T02:06:21;18.40;99.90
3408;DHT22;1717;50.240;8.406;2023-07-31T02:08:48;18.40;99.90
3408;DHT22;1717;50.240;8.406;2023-07-31T02:11:15;18.40;99.90
3408;DHT22;1717;50.240;8.406;2023-07-31T02:13:42;18.40;99.90
3408;DHT22;1717;50.240;8.406;2023-07-31T02:16:10;18.40;99.90
3408;DHT22;1717;50.240;8.406;2023-07-31T02:18:37;18.40;99.90
3408;DHT22;1717;50.240;8.406;2023-07-31T02:21:03;18.40;99.90
3408;DHT22;1717;50.240;8.406;2023-07-31T02:23:30;18.40;99.90
3408;DHT22;1717;50.240;8.406;2023-07-31T02:25:57;18.40;99.90
3408;DHT22;1717;50.240;8.406;2023-07-31T02:28:24;18.40;99.90
3408;DHT22;1717;50.240;8.406;2023-07-31T02:30:51;18.50;99.90
3408;DHT22;1717;50.240;8.406;2023-07-31T02:33:19;18.50;99.90
3408;DHT22;1717;50.240;8.406;2023-07-31T02:35:46;18.40;99.90
3408;DHT22;1717;50.240;8.406;2023-07-31T02:38:12;18.40;99.90
3408;DHT22;1717;50.240;8.406;2023-07-31T02:40:39;18.40;99.90
3408;DHT22;1717;50.240;8.406;2023-07-31T02:43:06;18.40;99.90
3408;DHT22;1717;50.240;8.406;2023-07-31T02:45:33;18.50;99.90
3408;DHT22;1717;50.240;8.406;2023-07-31T02:48:00;18.40;99.90
3408;DHT22;1717;50.240;8.406;2023-07-31T02:50:29;18.40;99.90
3408;DHT22;1717;50.240;8.406;2023-07-31T02:52:57;18.40;99.90
3408;DHT22;1717;50.240;8.406;2023-07-31T02:55:24;18.50;99.90
3408;DHT22;1717;50.240;8.406;2023-07-31T02:57:51;18.40;99.90
3408;DHT22;1717;50.240;8.406;2023-07-31T03:00:18;18.60;99.90
3408;DHT22;1717;50.240;8.406;2023-07-31T03:02:45;18.50;99.90
3408;DHT22;1717;50.240;8.406;2023-07-31T03:05:12;18.50;99.90
3408;DHT22;1717;50.240;8.406;2023-07-31T03:07:40;18.50;99.90
3408;DHT22;1717;50.240;8.406;2023-07-31T03:10:08;18.60;99.90
3408;DHT22;1717;50.240;8.406;2023-07-31T03:12:34;18.50;99.90
3408;DHT22;1717;50.240;8.406;2023-07-31T03:15:01;18.50;99.90
3408;DHT22;1717;50.240;8.406;2023-07-31T03:17:28;18.50;99.90
3408;DHT22;1717;50.240;8.406;2023-07-31T03:19:55;18.50;99.90
3408;DHT22;1717;50.240;8.406;2023-07-31T03:22:21;18.60;99.90
3408;DHT22;1717;50.240;8.406;2023-07-31T03:24:50;18.60;99.90
3408;DHT22;1717;50.240;8.406;2023-07-31T03:27:16;18.60;99.90
3408;DHT22;1717;50.240;8.406;2023-07-31T03:29:43;18.60;99.90
3408;DHT22;1717;50.240;8.406;2023-07-31T03:32:10;18.60;99.90
3408;DHT22;1717;50.240;8.406;2023-07-31T03:34:37;18.60;99.90
3408;DHT22;1717;50.240;8.406;2023-07-31T03:37:04;18.60;99.90
3408;DHT22;1717;50.240;8.406;2023-07-31T03:39:31;18.50;99.90
3408;DHT22;1717;50.240;8.406;2023-07-31T03:41:59;18.50;99.90
3408;DHT22;1717;50.240;8.406;2023-07-31T03:44:26;18.50;99.90
3408;DHT22;1717;50.240;8.406;2023-07-31T03:46:53;18.50;99.90
3408;DHT22;1717;50.240;8.406;2023-07-31T03:49:20;18.50;99.90
3408;DHT22;1717;50.240;8.406;2023-07-31T03:51:46;18.50;99.90
3408;DHT22;1717;50.240;8.406;2023-07-31T03:54:13;18.50;99.90
3408;DHT22;1717;50.240;8.406;2023-07-31T03:56:40;18.50;99.90
3408;DHT22;1717;50.240;8.406;2023-07-31T03:59:08;18.40;99.90
3408;DHT22;1717;50.240;8.406;2023-07-31T04:01:35;18.50;99.90
3408;DHT22;1717;50.240;8.406;2023-07-31T04:04:02;18.50;99.90
3408;DHT22;1717;50.240;8.406;2023-07-31T04:06:29;18.40;99.90
3408;DHT22;1717;50.240;8.406;2023-07-31T04:08:56;18.40;99.90
3408;DHT22;1717;50.240;8.406;2023-07-31T04:11:22;18.50;99.90
3408;DHT22;1717;50.240;8.406;2023-07-31T04:13:49;18.40;99.90
3408;DHT22;1717;50.240;8.406;2023-07-31T04:16:17;18.40;99.90
3408;DHT22;1717;50.240;8.406;2023-07-31T04:18:44;18.40;99.90
3408;DHT22;1717;50.240;8.406;2023-07-31T04:21:11;18.40;99.90
3408;DHT22;1717;50.240;8.406;2023-07-31T04:23:38;18.30;99.90
3408;DHT22;1717;50.240;8.406;2023-07-31T04:26:05;18.30;99.90
3408;DHT22;1717;50.240;8.406;2023-07-31T04:28:31;18.30;99.90
3408;DHT22;1717;50.240;8.406;2023-07-31T04:30:58;18.30;99.90
3408;DHT22;1717;50.240;8.406;2023-07-31T04:33:26;18.30;99.90
3408;DHT22;1717;50.240;8.406;2023-07-31T04:35:53;18.30;99.90
3408;DHT22;1717;50.240;8.406;2023-07-31T04:38:21;18.30;99.90
3408;DHT22;1717;50.240;8.406;2023-07-31T04:40:48;18.30;99.90
3408;DHT22;1717;50.240;8.406;2023-07-31T04:43:15;18.40;99.90
3408;DHT22;1717;50.240;8.406;2023-07-31T04:45:45;18.40;99.90
3408;DHT22;1717;50.240;8.406;2023-07-31T04:48:12;18.40;99.90
3408;DHT22;1717;50.240;8.406;2023-07-31T04:50:41;18.40;99.90
3408;DHT22;1717;50.240;8.406;2023-07-31T04:53:07;18.40;99.90
3408;DHT22;1717;50.240;8.406;2023-07-31T04:55:34;18.40;99.90
3408;DHT22;1717;50.240;8.406;2023-07-31T04:58:01;18.40;99.90
3408;DHT22;1717;50.240;8.406;2023-07-31T05:00:28;18.30;99.90
3408;DHT22;1717;50.240;8.406;2023-07-31T05:02:55;18.30;99.90
3408;DHT22;1717;50.240;8.406;2023-07-31T05:05:22;18.30;99.90
3408;DHT22;1717;50.240;8.406;2023-07-31T05:07:50;18.30;99.90
3408;DHT22;1717;50.240;8.406;2023-07-31T05:10:17;18.30;99.90
3408;DHT22;1717;50.240;8.406;2023-07-31T05:12:43;18.30;99.90
3408;DHT22;1717;50.240;8.406;2023-07-31T05:15:10;18.30;99.90
3408;DHT22;1717;50.240;8.406;2023-07-31T05:17:37;18.30;99.90
3408;DHT22;1717;50.240;8.406;2023-07-31T05:20:05;18.40;99.90
3408;DHT22;1717;50.240;8.406;2023-07-31T05:22:32;18.40;99.90
3408;DHT22;1717;50.240;8.406;2023-07-31T05:25:00;18.40;99.90
3408;DHT22;1717;50.240;8.406;2023-07-31T05:27:27;18.40;99.90
3408;DHT22;1717;50.240;8.406;2023-07-31T05:29:53;18.40;99.90
3408;DHT22;1717;50.240;8.406;2023-07-31T05:32:20;18.40;99.90
3408;DHT22;1717;50.240;8.406;2023-07-31T05:34:47;18.40;99.90
3408;DHT22;1717;50.240;8.406;2023-07-31T05:37:14;18.40;99.90
3408;DHT22;1717;50.240;8.406;2023-07-31T05:39:41;18.40;99.90
3408;DHT22;1717;50.240;8.406;2023-07-31T05:42:09;18.40;99.90
3408;DHT22;1717;50.240;8.406;2023-07-31T05:44:36;18.40;99.90
3408;DHT22;1717;50.240;8.406;2023-07-31T05:47:03;18.40;99.90
3408;DHT22;1717;50.240;8.406;2023-07-31T05:49:30;18.40;99.90
3408;DHT22;1717;50.240;8.406;2023-07-31T05:51:57;18.40;99.90
3408;DHT22;1717;50.240;8.406;2023-07-31T05:54:23;18.40;99.90
3408;DHT22;1717;50.240;8.406;2023-07-31T05:56:50;18.40;99.90
3408;DHT22;1717;50.240;8.406;2023-07-31T05:59:18;18.50;99.90
3408;DHT22;1717;50.240;8.406;2023-07-31T06:01:45;18.50;99.90
3408;DHT22;1717;50.240;8.406;2023-07-31T06:04:12;18.50;99.90
3408;DHT22;1717;50.240;8.406;2023-07-31T06:06:38;18.50;99.90
3408;DHT22;1717;50.240;8.406;2023-07-31T06:09:06;18.50;99.90
3408;DHT22;1717;50.240;8.406;2023-07-31T06:11:32;18.60;99.90
3408;DHT22;1717;50.240;8.406;2023-07-31T06:13:59;18.50;99.90
3408;DHT22;1717;50.240;8.406;2023-07-31T06:16:27;18.60;99.90
3408;DHT22;1717;50.240;8.406;2023-07-31T06:18:54;18.50;99.90
3408;DHT22;1717;50.240;8.406;2023-07-31T06:21:21;18.60;99.90
3408;DHT22;1717;50.240;8.406;2023-07-31T06:23:48;18.60;99.90
3408;DHT22;1717;50.240;8.406;2023-07-31T06:26:14;18.60;99.90
3408;DHT22;1717;50.240;8.406;2023-07-31T06:28:41;18.60;99.90
3408;DHT22;1717;50.240;8.406;2023-07-31T06:31:08;18.70;99.90
3408;DHT22;1717;50.240;8.406;2023-07-31T06:33:36;18.70;99.90
3408;DHT22;1717;50.240;8.406;2023-07-31T06:36:03;18.80;99.90
3408;DHT22;1717;50.240;8.406;2023-07-31T06:38:30;18.80;99.90
3408;DHT22;1717;50.240;8.406;2023-07-31T06:40:57;18.80;99.90
3408;DHT22;1717;50.240;8.406;2023-07-31T06:43:23;18.90;99.90
3408;DHT22;1717;50.240;8.406;2023-07-31T06:45:50;18.80;99.90
3408;DHT22;1717;50.240;8.406;2023-07-31T06:48:17;18.80;99.90
3408;DHT22;1717;50.240;8.406;2023-07-31T06:50:46;18.90;99.90
3408;DHT22;1717;50.240;8.406;2023-07-31T06:53:12;18.90;99.90
3408;DHT22;1717;50.240;8.406;2023-07-31T06:55:39;18.90;99.90
3408;DHT22;1717;50.240;8.406;2023-07-31T06:58:06;19.00;99.90
3408;DHT22;1717;50.240;8.406;2023-07-31T07:00:33;19.00;99.90
3408;DHT22;1717;50.240;8.406;2023-07-31T07:03:00;19.10;99.90
3408;DHT22;1717;50.240;8.406;2023-07-31T07:05:26;19.10;99.90
3408;DHT22;1717;50.240;8.406;2023-07-31T07:07:54;19.10;99.90
3408;DHT22;1717;50.240;8.406;2023-07-31T07:10:21;19.10;99.90
3408;DHT22;1717;50.240;8.406;2023-07-31T07:12:48;19.20;99.90
3408;DHT22;1717;50.240;8.406;2023-07-31T07:15:15;19.20;99.90
3408;DHT22;1717;50.240;8.406;2023-07-31T07:17:42;19.20;99.90
3408;DHT22;1717;50.240;8.406;2023-07-31T07:20:09;19.20;99.90
3408;DHT22;1717;50.240;8.406;2023-07-31T07:22:36;19.20;99.90
3408;DHT22;1717;50.240;8.406;2023-07-31T07:25:05;19.20;99.90
3408;DHT22;1717;50.240;8.406;2023-07-31T07:27:32;19.30;99.90
3408;DHT22;1717;50.240;8.406;2023-07-31T07:29:59;19.30;99.90
3408;DHT22;1717;50.240;8.406;2023-07-31T07:32:26;19.30;99.90
3408;DHT22;1717;50.240;8.406;2023-07-31T07:34:53;19.30;99.90
3408;DHT22;1717;50.240;8.406;2023-07-31T07:37:21;19.30;99.90
3408;DHT22;1717;50.240;8.406;2023-07-31T07:39:48;19.30;99.90
3408;DHT22;1717;50.240;8.406;2023-07-31T07:42:17;19.30;99.90
3408;DHT22;1717;50.240;8.406;2023-07-31T07:44:44;19.30;99.90
3408;DHT22;1717;50.240;8.406;2023-07-31T07:47:12;19.40;99.90
3408;DHT22;1717;50.240;8.406;2023-07-31T07:49:39;19.40;99.90
3408;DHT22;1717;50.240;8.406;2023-07-31T07:52:06;19.50;99.90
3408;DHT22;1717;50.240;8.406;2023-07-31T07:54:33;19.40;99.90
3408;DHT22;1717;50.240;8.406;2023-07-31T07:57:00;19.40;99.90
3408;DHT22;1717;50.240;8.406;2023-07-31T07:59:28;19.50;99.90
3408;DHT22;1717;50.240;8.406;2023-07-31T08:01:55;19.60;99.90
3408;DHT22;1717;50.240;8.406;2023-07-31T08:04:23;19.60;99.90
3408;DHT22;1717;50.240;8.406;2023-07-31T08:06:49;19.60;99.90
3408;DHT22;1717;50.240;8.406;2023-07-31T08:09:16;19.70;99.90
3408;DHT22;1717;50.240;8.406;2023-07-31T08:11:43;19.60;99.90
3408;DHT22;1717;50.240;8.406;2023-07-31T08:14:10;19.70;99.90
3408;DHT22;1717;50.240;8.406;2023-07-31T08:16:38;19.70;99.90
3408;DHT22;1717;50.240;8.406;2023-07-31T08:19:05;19.80;99.90
3408;DHT22;1717;50.240;8.406;2023-07-31T08:21:32;19.90;99.90
3408;DHT22;1717;50.240;8.406;2023-07-31T08:23:58;20.00;99.90
3408;DHT22;1717;50.240;8.406;2023-07-31T08:26:25;19.90;99.90
3408;DHT22;1717;50.240;8.406;2023-07-31T08:28:52;20.10;99.90
3408;DHT22;1717;50.240;8.406;2023-07-31T08:31:19;20.20;99.90
3408;DHT22;1717;50.240;8.406;2023-07-31T08:33:47;20.20;99.90
3408;DHT22;1717;50.240;8.406;2023-07-31T08:36:14;20.30;99.90
3408;DHT22;1717;50.240;8.406;2023-07-31T08:38:41;20.30;99.90
3408;DHT22;1717;50.240;8.406;2023-07-31T08:41:07;20.30;99.90
3408;DHT22;1717;50.240;8.406;2023-07-31T08:43:35;20.30;99.90
3408;DHT22;1717;50.240;8.406;2023-07-31T08:46:02;20.30;99.90
3408;DHT22;1717;50.240;8.406;2023-07-31T08:48:31;20.40;99.90
3408;DHT22;1717;50.240;8.406;2023-07-31T08:51:00;20.40;99.90
3408;DHT22;1717;50.240;8.406;2023-07-31T08:53:27;20.60;99.90
3408;DHT22;1717;50.240;8.406;2023-07-31T08:55:54;20.50;99.90
3408;DHT22;1717;50.240;8.406;2023-07-31T08:58:23;20.50;99.90
3408;DHT22;1717;50.240;8.406;2023-07-31T09:00:51;20.50;99.90
3408;DHT22;1717;50.240;8.406;2023-07-31T09:03:18;20.50;99.90
3408;DHT22;1717;50.240;8.406;2023-07-31T09:05:46;20.50;99.90
3408;DHT22;1717;50.240;8.406;2023-07-31T09:08:17;20.50;99.90
3408;DHT22;1717;50.240;8.406;2023-07-31T09:10:46;20.50;99.90
3408;DHT22;1717;50.240;8.406;2023-07-31T09:13:13;20.50;99.90
3408;DHT22;1717;50.240;8.406;2023-07-31T09:15:41;20.50;99.90
3408;DHT22;1717;50.240;8.406;2023-07-31T09:18:09;20.50;99.90
3408;DHT22;1717;50.240;8.406;2023-07-31T09:20:37;20.40;99.90
3408;DHT22;1717;50.240;8.406;2023-07-31T09:23:08;20.30;99.90
3408;DHT22;1717;50.240;8.406;2023-07-31T09:25:37;20.20;99.90
3408;DHT22;1717;50.240;8.406;2023-07-31T09:28:06;20.20;99.90
3408;DHT22;1717;50.240;8.406;2023-07-31T09:30:45;20.20;99.90
3408;DHT22;1717;50.240;8.406;2023-07-31T09:33:13;20.20;99.90
3408;DHT22;1717;50.240;8.406;2023-07-31T09:35:40;20.30;99.90
3408;DHT22;1717;50.240;8.406;2023-07-31T09:38:09;20.20;99.90
3408;DHT22;1717;50.240;8.406;2023-07-31T09:40:39;20.20;99.90
3408;DHT22;1717;50.240;8.406;2023-07-31T09:43:07;20.20;99.90
3408;DHT22;1717;50.240;8.406;2023-07-31T09:45:36;20.20;99.90
3408;DHT22;1717;50.240;8.406;2023-07-31T09:48:06;20.10;99.90
3408;DHT22;1717;50.240;8.406;2023-07-31T09:50:36;20.20;99.90
3408;DHT22;1717;50.240;8.406;2023-07-31T09:53:04;20.10;99.90
3408;DHT22;1717;50.240;8.406;2023-07-31T09:55:32;20.20;99.90
3408;DHT22;1717;50.240;8.406;2023-07-31T09:58:03;20.30;99.90
3408;DHT22;1717;50.240;8.406;2023-07-31T10:00:30;20.30;99.90
3408;DHT22;1717;50.240;8.406;2023-07-31T10:02:59;20.40;99.90
3408;DHT22;1717;50.240;8.406;2023-07-31T10:05:34;20.40;99.90
3408;DHT22;1717;50.240;8.406;2023-07-31T10:08:01;20.50;99.90
3408;DHT22;1717;50.240;8.406;2023-07-31T10:10:28;20.60;99.90
3408;DHT22;1717;50.240;8.406;2023-07-31T10:12:56;20.60;99.90
3408;DHT22;1717;50.240;8.406;2023-07-31T10:15:25;20.70;99.90
3408;DHT22;1717;50.240;8.406;2023-07-31T10:17:54;20.80;99.90
3408;DHT22;1717;50.240;8.406;2023-07-31T10:20:21;20.80;99.90
3408;DHT22;1717;50.240;8.406;2023-07-31T10:22:49;20.90;99.90
3408;DHT22;1717;50.240;8.406;2023-07-31T10:25:16;21.00;99.90
3408;DHT22;1717;50.240;8.406;2023-07-31T10:27:43;21.00;99.90
3408;DHT22;1717;50.240;8.406;2023-07-31T10:30:12;21.00;99.90
3408;DHT22;1717;50.240;8.406;2023-07-31T10:32:43;21.00;99.90
3408;DHT22;1717;50.240;8.406;2023-07-31T10:35:16;21.00;99.90
3408;DHT22;1717;50.240;8.406;2023-07-31T10:37:44;21.00;99.90
3408;DHT22;1717;50.240;8.406;2023-07-31T10:40:12;21.00;99.90
3408;DHT22;1717;50.240;8.406;2023-07-31T10:42:45;21.00;99.90
3408;DHT22;1717;50.240;8.406;2023-07-31T10:45:14;20.90;99.90
3408;DHT22;1717;50.240;8.406;2023-07-31T10:47:58;20.90;99.90
3408;DHT22;1717;50.240;8.406;2023-07-31T10:50:26;20.80;99.90
3408;DHT22;1717;50.240;8.406;2023-07-31T10:52:54;20.80;99.90
3408;DHT22;1717;50.240;8.406;2023-07-31T10:55:30;20.80;99.90
3408;DHT22;1717;50.240;8.406;2023-07-31T10:58:04;20.80;99.90
3408;DHT22;1717;50.240;8.406;2023-07-31T11:00:32;20.70;99.90
3408;DHT22;1717;50.240;8.406;2023-07-31T11:03:02;20.70;99.90
3408;DHT22;1717;50.240;8.406;2023-07-31T11:05:44;20.70;99.90
3408;DHT22;1717;50.240;8.406;2023-07-31T11:08:16;20.70;99.90
3408;DHT22;1717;50.240;8.406;2023-07-31T11:10:44;20.70;99.90
3408;DHT22;1717;50.240;8.406;2023-07-31T11:13:11;20.70;99.90
3408;DHT22;1717;50.240;8.406;2023-07-31T11:15:37;20.70;99.90
3408;DHT22;1717;50.240;8.406;2023-07-31T11:18:06;20.80;99.90
3408;DHT22;1717;50.240;8.406;2023-07-31T11:20:34;20.80;99.90
3408;DHT22;1717;50.240;8.406;2023-07-31T11:23:02;20.80;99.90
3408;DHT22;1717;50.240;8.406;2023-07-31T11:25:29;20.80;99.90
3408;DHT22;1717;50.240;8.406;2023-07-31T11:27:57;20.90;99.90
3408;DHT22;1717;50.240;8.406;2023-07-31T11:30:24;21.00;99.90
3408;DHT22;1717;50.240;8.406;2023-07-31T11:32:51;21.00;99.90
3408;DHT22;1717;50.240;8.406;2023-07-31T11:35:19;21.00;99.90
3408;DHT22;1717;50.240;8.406;2023-07-31T11:37:46;21.00;99.90
3408;DHT22;1717;50.240;8.406;2023-07-31T11:40:14;21.10;99.90
3408;DHT22;1717;50.240;8.406;2023-07-31T11:42:41;21.10;99.90
3408;DHT22;1717;50.240;8.406;2023-07-31T11:45:09;21.20;99.90
3408;DHT22;1717;50.240;8.406;2023-07-31T11:47:36;21.20;99.90
3408;DHT22;1717;50.240;8.406;2023-07-31T11:50:06;21.20;99.90
3408;DHT22;1717;50.240;8.406;2023-07-31T11:52:40;21.30;99.90
3408;DHT22;1717;50.240;8.406;2023-07-31T11:55:08;21.30;99.90
3408;DHT22;1717;50.240;8.406;2023-07-31T11:57:37;21.40;99.90
3408;DHT22;1717;50.240;8.406;2023-07-31T12:00:07;21.40;99.90
3408;DHT22;1717;50.240;8.406;2023-07-31T12:02:35;21.50;99.90
3408;DHT22;1717;50.240;8.406;2023-07-31T12:05:02;21.50;99.90
3408;DHT22;1717;50.240;8.406;2023-07-31T12:07:47;21.50;99.90
3408;DHT22;1717;50.240;8.406;2023-07-31T12:10:28;21.50;99.90
3408;DHT22;1717;50.240;8.406;2023-07-31T12:13:01;21.50;99.90
3408;DHT22;1717;50.240;8.406;2023-07-31T12:15:38;21.60;99.90
3408;DHT22;1717;50.240;8.406;2023-07-31T12:18:07;21.60;99.90
3408;DHT22;1717;50.240;8.406;2023-07-31T12:20:34;21.60;99.90
3408;DHT22;1717;50.240;8.406;2023-07-31T12:23:03;21.60;99.50
3408;DHT22;1717;50.240;8.406;2023-07-31T12:25:31;21.60;99.90
3408;DHT22;1717;50.240;8.406;2023-07-31T12:28:04;21.60;99.90
3408;DHT22;1717;50.240;8.406;2023-07-31T12:30:33;21.60;99.40
3408;DHT22;1717;50.240;8.406;2023-07-31T12:33:03;21.60;99.90
3408;DHT22;1717;50.240;8.406;2023-07-31T12:35:36;21.60;99.90
3408;DHT22;1717;50.240;8.406;2023-07-31T12:38:04;21.70;99.90
3408;DHT22;1717;50.240;8.406;2023-07-31T12:40:31;21.70;99.90
3408;DHT22;1717;50.240;8.406;2023-07-31T12:43:01;21.70;99.90
3408;DHT22;1717;50.240;8.406;2023-07-31T12:45:29;21.70;99.90
3408;DHT22;1717;50.240;8.406;2023-07-31T12:47:56;21.80;99.90
3408;DHT22;1717;50.240;8.406;2023-07-31T12:50:23;21.90;99.90
3408;DHT22;1717;50.240;8.406;2023-07-31T12:52:51;21.90;99.90
3408;DHT22;1717;50.240;8.406;2023-07-31T12:55:19;22.00;99.90
3408;DHT22;1717;50.240;8.406;2023-07-31T12:57:46;22.10;99.90
3408;DHT22;1717;50.240;8.406;2023-07-31T13:00:14;22.20;99.90
3408;DHT22;1717;50.240;8.406;2023-07-31T13:02:41;22.30;99.90
3408;DHT22;1717;50.240;8.406;2023-07-31T13:05:08;22.30;99.80
3408;DHT22;1717;50.240;8.406;2023-07-31T13:07:35;22.40;99.70
3408;DHT22;1717;50.240;8.406;2023-07-31T13:10:01;22.40;99.70
3408;DHT22;1717;50.240;8.406;2023-07-31T13:12:30;22.50;99.40
3408;DHT22;1717;50.240;8.406;2023-07-31T13:14:57;22.50;99.40
3408;DHT22;1717;50.240;8.406;2023-07-31T13:17:23;22.60;99.00
3408;DHT22;1717;50.240;8.406;2023-07-31T13:19:50;22.40;99.00
3408;DHT22;1717;50.240;8.406;2023-07-31T13:22:17;22.60;99.10
3408;DHT22;1717;50.240;8.406;2023-07-31T13:24:44;22.70;99.10
3408;DHT22;1717;50.240;8.406;2023-07-31T13:27:11;22.70;99.10
3408;DHT22;1717;50.240;8.406;2023-07-31T13:29:39;22.70;99.30
3408;DHT22;1717;50.240;8.406;2023-07-31T13:32:06;22.70;98.40
3408;DHT22;1717;50.240;8.406;2023-07-31T13:34:33;22.70;98.60
3408;DHT22;1717;50.240;8.406;2023-07-31T13:37:00;22.80;98.50
3408;DHT22;1717;50.240;8.406;2023-07-31T13:39:27;22.80;98.40
3408;DHT22;1717;50.240;8.406;2023-07-31T13:41:54;22.80;98.40
3408;DHT22;1717;50.240;8.406;2023-07-31T13:44:21;22.80;98.10
3408;DHT22;1717;50.240;8.406;2023-07-31T13:46:49;22.80;98.20
3408;DHT22;1717;50.240;8.406;2023-07-31T13:49:16;22.80;98.10
3408;DHT22;1717;50.240;8.406;2023-07-31T13:51:42;22.80;97.90
3408;DHT22;1717;50.240;8.406;2023-07-31T13:54:09;22.80;97.80
3408;DHT22;1717;50.240;8.406;2023-07-31T13:56:37;22.70;97.90
3408;DHT22;1717;50.240;8.406;2023-07-31T13:59:04;22.70;98.20
3408;DHT22;1717;50.240;8.406;2023-07-31T14:01:31;22.70;97.60
3408;DHT22;1717;50.240;8.406;2023-07-31T14:04:00;22.70;97.40
3408;DHT22;1717;50.240;8.406;2023-07-31T14:06:26;22.60;97.20
3408;DHT22;1717;50.240;8.406;2023-07-31T14:08:53;22.50;96.90
3408;DHT22;1717;50.240;8.406;2023-07-31T14:11:21;22.50;96.80
3408;DHT22;1717;50.240;8.406;2023-07-31T14:13:49;22.40;97.30
3408;DHT22;1717;50.240;8.406;2023-07-31T14:16:16;22.40;97.50
3408;DHT22;1717;50.240;8.406;2023-07-31T14:18:43;22.40;97.80
3408;DHT22;1717;50.240;8.406;2023-07-31T14:21:12;22.40;97.90
3408;DHT22;1717;50.240;8.406;2023-07-31T14:23:39;22.40;98.20
3408;DHT22;1717;50.240;8.406;2023-07-31T14:26:06;22.40;97.90
3408;DHT22;1717;50.240;8.406;2023-07-31T14:28:33;22.40;98.30
3408;DHT22;1717;50.240;8.406;2023-07-31T14:31:00;22.50;98.00
3408;DHT22;1717;50.240;8.406;2023-07-31T14:33:27;22.40;98.20
3408;DHT22;1717;50.240;8.406;2023-07-31T14:35:54;22.50;98.60
3408;DHT22;1717;50.240;8.406;2023-07-31T14:38:22;22.50;99.20
3408;DHT22;1717;50.240;8.406;2023-07-31T14:40:49;22.50;98.60
3408;DHT22;1717;50.240;8.406;2023-07-31T14:43:16;22.50;98.80
3408;DHT22;1717;50.240;8.406;2023-07-31T14:45:43;22.50;98.90
3408;DHT22;1717;50.240;8.406;2023-07-31T14:48:12;22.40;98.50
3408;DHT22;1717;50.240;8.406;2023-07-31T14:50:38;22.40;98.50
3408;DHT22;1717;50.240;8.406;2023-07-31T14:53:05;22.40;98.30
3408;DHT22;1717;50.240;8.406;2023-07-31T14:55:33;22.40;98.30
3408;DHT22;1717;50.240;8.406;2023-07-31T14:58:00;22.40;98.20
3408;DHT22;1717;50.240;8.406;2023-07-31T15:00:28;22.40;98.20
3408;DHT22;1717;50.240;8.406;2023-07-31T15:02:55;22.50;98.40
3408;DHT22;1717;50.240;8.406;2023-07-31T15:05:22;22.50;98.20
3408;DHT22;1717;50.240;8.406;2023-07-31T15:07:49;22.50;98.40
3408;DHT22;1717;50.240;8.406;2023-07-31T15:10:16;22.50;98.20
3408;DHT22;1717;50.240;8.406;2023-07-31T15:12:44;22.60;98.30
3408;DHT22;1717;50.240;8.406;2023-07-31T15:15:11;22.60;98.00
3408;DHT22;1717;50.240;8.406;2023-07-31T15:17:38;22.50;98.10
3408;DHT22;1717;50.240;8.406;2023-07-31T15:20:06;22.50;98.00
3408;DHT22;1717;50.240;8.406;2023-07-31T15:22:33;22.50;97.90
3408;DHT22;1717;50.240;8.406;2023-07-31T15:24:59;22.40;97.30
3408;DHT22;1717;50.240;8.406;2023-07-31T15:27:26;22.50;97.50
3408;DHT22;1717;50.240;8.406;2023-07-31T15:29:54;22.40;97.40
3408;DHT22;1717;50.240;8.406;2023-07-31T15:32:22;22.40;97.80
3408;DHT22;1717;50.240;8.406;2023-07-31T15:34:50;22.40;97.60
3408;DHT22;1717;50.240;8.406;2023-07-31T15:37:17;22.40;97.50
3408;DHT22;1717;50.240;8.406;2023-07-31T15:39:44;22.40;97.60
3408;DHT22;1717;50.240;8.406;2023-07-31T15:42:11;22.40;97.90
3408;DHT22;1717;50.240;8.406;2023-07-31T15:44:37;22.40;98.20
3408;DHT22;1717;50.240;8.406;2023-07-31T15:47:06;22.40;97.70
3408;DHT22;1717;50.240;8.406;2023-07-31T15:49:33;22.40;97.30
3408;DHT22;1717;50.240;8.406;2023-07-31T15:52:00;22.30;97.20
3408;DHT22;1717;50.240;8.406;2023-07-31T15:54:27;22.30;97.30
3408;DHT22;1717;50.240;8.406;2023-07-31T15:56:54;22.30;97.30
3408;DHT22;1717;50.240;8.406;2023-07-31T15:59:20;22.20;97.20
3408;DHT22;1717;50.240;8.406;2023-07-31T16:01:47;22.20;97.40
3408;DHT22;1717;50.240;8.406;2023-07-31T16:04:15;22.10;97.40